sensor_id;sensor_type;location;lat;lon;timestamp;P1;durP1;ratioP1;P2;durP2;ratioP2
18082;SDS011;9168;51.194;6.840;2023-05-10T00:01:10;16.98;;;11.30;;
18082;SDS011;9168;51.194;6.840;2023-05-10T00:03:37;14.93;;;10.38;;
18082;SDS011;9168;51.194;6.840;2023-05-10T00:06:05;15.10;;;11.20;;
18082;SDS011;9168;51.194;6.840;2023-05-10T00:08:32;19.83;;;11.57;;
18082;SDS011;9168;51.194;6.840;2023-05-10T00:11:00;18.55;;;11.93;;
18082;SDS011;9168;51.194;6.840;2023-05-10T00:13:27;17.27;;;11.82;;
18082;SDS011;9168;51.194;6.840;2023-05-10T00:15:54;18.20;;;11.40;;
18082;SDS011;9168;51.194;6.840;2023-05-10T00:18:21;17.70;;;11.98;;
18082;SDS011;9168;51.194;6.840;2023-05-10T00:20:48;17.73;;;12.85;;
18082;SDS011;9168;51.194;6.840;2023-05-10T00:23:15;19.20;;;12.77;;
18082;SDS011;9168;51.194;6.840;2023-05-10T00:25:41;17.00;;;12.45;;
18082;SDS011;9168;51.194;6.840;2023-05-10T00:28:10;19.20;;;13.23;;
18082;SDS011;9168;51.194;6.840;2023-05-10T00:30:36;20.10;;;13.07;;
18082;SDS011;9168;51.194;6.840;2023-05-10T00:33:03;21.38;;;13.77;;
18082;SDS011;9168;51.194;6.840;2023-05-10T00:35:30;22.83;;;12.98;;
18082;SDS011;9168;51.194;6.840;2023-05-10T00:37:57;19.40;;;13.43;;
18082;SDS011;9168;51.194;6.840;2023-05-10T00:40:24;22.70;;;13.73;;
18082;SDS011;9168;51.194;6.840;2023-05-10T00:42:51;21.00;;;13.68;;
18082;SDS011;9168;51.194;6.840;2023-05-10T00:45:19;24.00;;;14.63;;
18082;SDS011;9168;51.194;6.840;2023-05-10T00:47:46;20.25;;;14.45;;
18082;SDS011;9168;51.194;6.840;2023-05-10T00:50:13;20.83;;;13.65;;
18082;SDS011;9168;51.194;6.840;2023-05-10T00:52:40;19.98;;;13.02;;
18082;SDS011;9168;51.194;6.840;2023-05-10T00:55:08;23.42;;;13.75;;
18082;SDS011;9168;51.194;6.840;2023-05-10T00:57:37;22.45;;;14.02;;
18082;SDS011;9168;51.194;6.840;2023-05-10T01:00:05;20.35;;;14.18;;
18082;SDS011;9168;51.194;6.840;2023-05-10T01:02:34;20.05;;;13.75;;
18082;SDS011;9168;51.194;6.840;2023-05-10T01:05:01;19.98;;;13.65;;
18082;SDS011;9168;51.194;6.840;2023-05-10T01:07:30;20.83;;;13.40;;
18082;SDS011;9168;51.194;6.840;2023-05-10T01:09:57;20.48;;;13.13;;
18082;SDS011;9168;51.194;6.840;2023-05-10T01:12:24;18.85;;;12.82;;
18082;SDS011;9168;51.194;6.840;2023-05-10T01:14:51;23.38;;;13.02;;
18082;SDS011;9168;51.194;6.840;2023-05-10T01:17:18;15.45;;;10.68;;
18082;SDS011;9168;51.194;6.840;2023-05-10T01:19:47;18.65;;;10.65;;
18082;SDS011;9168;51.194;6.840;2023-05-10T01:22:19;16.13;;;8.32;;
18082;SDS011;9168;51.194;6.840;2023-05-10T01:25:23;16.55;;;8.40;;
18082;SDS011;9168;51.194;6.840;2023-05-10T01:28:08;14.35;;;7.97;;
18082;SDS011;9168;51.194;6.840;2023-05-10T01:31:06;16.90;;;8.60;;
18082;SDS011;9168;51.194;6.840;2023-05-10T01:33:46;15.10;;;7.82;;
18082;SDS011;9168;51.194;6.840;2023-05-10T01:36:19;19.92;;;9.55;;
18082;SDS011;9168;51.194;6.840;2023-05-10T01:38:53;13.00;;;9.00;;
18082;SDS011;9168;51.194;6.840;2023-05-10T01:41:28;14.32;;;9.32;;
18082;SDS011;9168;51.194;6.840;2023-05-10T01:44:04;15.95;;;9.02;;
18082;SDS011;9168;51.194;6.840;2023-05-10T01:46:36;14.93;;;8.90;;
18082;SDS011;9168;51.194;6.840;2023-05-10T01:49:07;14.90;;;8.23;;
18082;SDS011;9168;51.194;6.840;2023-05-10T01:51:38;13.50;;;8.60;;
18082;SDS011;9168;51.194;6.840;2023-05-10T01:54:11;15.60;;;9.38;;
18082;SDS011;9168;51.194;6.840;2023-05-10T01:56:39;14.55;;;8.85;;
18082;SDS011;9168;51.194;6.840;2023-05-10T01:59:11;17.42;;;9.43;;
18082;SDS011;9168;51.194;6.840;2023-05-10T02:01:41;15.02;;;9.23;;
18082;SDS011;9168;51.194;6.840;2023-05-10T02:04:12;20.70;;;10.25;;
18082;SDS011;9168;51.194;6.840;2023-05-10T02:06:43;16.23;;;9.18;;
18082;SDS011;9168;51.194;6.840;2023-05-10T02:09:12;14.15;;;8.82;;
18082;SDS011;9168;51.194;6.840;2023-05-10T02:11:41;16.65;;;9.77;;
18082;SDS011;9168;51.194;6.840;2023-05-10T02:14:09;16.20;;;10.02;;
18082;SDS011;9168;51.194;6.840;2023-05-10T02:16:38;17.33;;;10.20;;
18082;SDS011;9168;51.194;6.840;2023-05-10T02:19:05;15.57;;;10.32;;
18082;SDS011;9168;51.194;6.840;2023-05-10T02:21:35;18.60;;;10.40;;
18082;SDS011;9168;51.194;6.840;2023-05-10T02:24:04;17.63;;;10.02;;
18082;SDS011;9168;51.194;6.840;2023-05-10T02:26:33;19.15;;;11.20;;
18082;SDS011;9168;51.194;6.840;2023-05-10T02:29:02;18.60;;;10.60;;
18082;SDS011;9168;51.194;6.840;2023-05-10T02:31:29;16.65;;;10.98;;
18082;SDS011;9168;51.194;6.840;2023-05-10T02:33:57;17.60;;;11.55;;
18082;SDS011;9168;51.194;6.840;2023-05-10T02:36:26;18.33;;;10.82;;
18082;SDS011;9168;51.194;6.840;2023-05-10T02:38:55;16.95;;;10.55;;
18082;SDS011;9168;51.194;6.840;2023-05-10T02:41:23;16.50;;;10.88;;
18082;SDS011;9168;51.194;6.840;2023-05-10T02:43:51;16.80;;;10.57;;
18082;SDS011;9168;51.194;6.840;2023-05-10T02:46:23;17.45;;;11.02;;
18082;SDS011;9168;51.194;6.840;2023-05-10T02:48:50;17.95;;;11.55;;
18082;SDS011;9168;51.194;6.840;2023-05-10T02:51:17;16.40;;;11.05;;
18082;SDS011;9168;51.194;6.840;2023-05-10T02:53:46;17.02;;;10.98;;
18082;SDS011;9168;51.194;6.840;2023-05-10T02:56:19;17.88;;;11.18;;
18082;SDS011;9168;51.194;6.840;2023-05-10T02:58:51;22.27;;;12.52;;
18082;SDS011;9168;51.194;6.840;2023-05-10T03:01:18;18.98;;;12.10;;
18082;SDS011;9168;51.194;6.840;2023-05-10T03:03:45;19.67;;;11.32;;
18082;SDS011;9168;51.194;6.840;2023-05-10T03:06:12;20.50;;;11.65;;
18082;SDS011;9168;51.194;6.840;2023-05-10T03:08:39;20.17;;;10.88;;
18082;SDS011;9168;51.194;6.840;2023-05-10T03:11:10;16.42;;;11.05;;
18082;SDS011;9168;51.194;6.840;2023-05-10T03:13:53;17.10;;;10.82;;
18082;SDS011;9168;51.194;6.840;2023-05-10T03:16:32;23.45;;;11.05;;
18082;SDS011;9168;51.194;6.840;2023-05-10T03:19:12;18.88;;;10.73;;
18082;SDS011;9168;51.194;6.840;2023-05-10T03:21:47;17.60;;;9.75;;
18082;SDS011;9168;51.194;6.840;2023-05-10T03:24:17;18.15;;;10.23;;
18082;SDS011;9168;51.194;6.840;2023-05-10T03:26:49;15.80;;;10.00;;
18082;SDS011;9168;51.194;6.840;2023-05-10T03:29:16;14.80;;;9.30;;
18082;SDS011;9168;51.194;6.840;2023-05-10T03:31:46;15.13;;;9.35;;
18082;SDS011;9168;51.194;6.840;2023-05-10T03:34:13;14.93;;;9.05;;
18082;SDS011;9168;51.194;6.840;2023-05-10T03:36:40;18.42;;;10.02;;
18082;SDS011;9168;51.194;6.840;2023-05-10T03:39:07;15.88;;;9.63;;
18082;SDS011;9168;51.194;6.840;2023-05-10T03:41:35;17.10;;;9.52;;
18082;SDS011;9168;51.194;6.840;2023-05-10T03:44:03;14.77;;;9.95;;
18082;SDS011;9168;51.194;6.840;2023-05-10T03:46:30;16.42;;;9.82;;
18082;SDS011;9168;51.194;6.840;2023-05-10T03:49:00;19.27;;;9.48;;
18082;SDS011;9168;51.194;6.840;2023-05-10T03:51:27;15.70;;;9.13;;
18082;SDS011;9168;51.194;6.840;2023-05-10T03:53:56;22.83;;;9.65;;
18082;SDS011;9168;51.194;6.840;2023-05-10T03:56:22;16.80;;;8.88;;
18082;SDS011;9168;51.194;6.840;2023-05-10T03:58:49;16.38;;;9.55;;
18082;SDS011;9168;51.194;6.840;2023-05-10T04:01:17;21.38;;;11.02;;
18082;SDS011;9168;51.194;6.840;2023-05-10T04:03:44;15.20;;;9.98;;
18082;SDS011;9168;51.194;6.840;2023-05-10T04:06:11;17.02;;;10.52;;
18082;SDS011;9168;51.194;6.840;2023-05-10T04:08:38;20.80;;;11.07;;
18082;SDS011;9168;51.194;6.840;2023-05-10T04:11:05;20.60;;;11.25;;
18082;SDS011;9168;51.194;6.840;2023-05-10T04:13:33;15.50;;;10.52;;
18082;SDS011;9168;51.194;6.840;2023-05-10T04:16:00;17.83;;;10.63;;
18082;SDS011;9168;51.194;6.840;2023-05-10T04:18:28;22.92;;;12.50;;
18082;SDS011;9168;51.194;6.840;2023-05-10T04:20:55;17.40;;;11.25;;
18082;SDS011;9168;51.194;6.840;2023-05-10T04:23:22;19.17;;;11.23;;
18082;SDS011;9168;51.194;6.840;2023-05-10T04:25:49;23.42;;;11.45;;
18082;SDS011;9168;51.194;6.840;2023-05-10T04:28:16;24.35;;;13.73;;
18082;SDS011;9168;51.194;6.840;2023-05-10T04:30:43;26.40;;;13.35;;
18082;SDS011;9168;51.194;6.840;2023-05-10T04:33:09;23.73;;;14.93;;
18082;SDS011;9168;51.194;6.840;2023-05-10T04:35:38;26.13;;;15.70;;
18082;SDS011;9168;51.194;6.840;2023-05-10T04:38:05;31.30;;;17.42;;
18082;SDS011;9168;51.194;6.840;2023-05-10T04:40:31;30.35;;;16.27;;
18082;SDS011;9168;51.194;6.840;2023-05-10T04:42:59;28.17;;;16.45;;
18082;SDS011;9168;51.194;6.840;2023-05-10T04:45:26;33.33;;;17.88;;
18082;SDS011;9168;51.194;6.840;2023-05-10T04:47:53;30.85;;;17.95;;
18082;SDS011;9168;51.194;6.840;2023-05-10T04:50:19;40.45;;;19.33;;
18082;SDS011;9168;51.194;6.840;2023-05-10T04:52:48;39.53;;;19.48;;
18082;SDS011;9168;51.194;6.840;2023-05-10T04:55:14;33.38;;;18.40;;
18082;SDS011;9168;51.194;6.840;2023-05-10T04:57:41;36.25;;;18.50;;
18082;SDS011;9168;51.194;6.840;2023-05-10T05:00:10;33.78;;;19.50;;
18082;SDS011;9168;51.194;6.840;2023-05-10T05:02:37;36.67;;;20.92;;
18082;SDS011;9168;51.194;6.840;2023-05-10T05:05:05;38.03;;;19.83;;
18082;SDS011;9168;51.194;6.840;2023-05-10T05:07:32;37.33;;;21.38;;
18082;SDS011;9168;51.194;6.840;2023-05-10T05:10:00;43.92;;;22.17;;
18082;SDS011;9168;51.194;6.840;2023-05-10T05:12:28;40.85;;;21.60;;
18082;SDS011;9168;51.194;6.840;2023-05-10T05:14:55;41.38;;;22.73;;
18082;SDS011;9168;51.194;6.840;2023-05-10T05:17:22;46.08;;;23.42;;
18082;SDS011;9168;51.194;6.840;2023-05-10T05:19:49;42.15;;;23.13;;
18082;SDS011;9168;51.194;6.840;2023-05-10T05:22:15;38.28;;;20.73;;
18082;SDS011;9168;51.194;6.840;2023-05-10T05:24:42;47.72;;;23.77;;
18082;SDS011;9168;51.194;6.840;2023-05-10T05:27:11;38.95;;;21.40;;
18082;SDS011;9168;51.194;6.840;2023-05-10T05:29:38;42.63;;;23.92;;
18082;SDS011;9168;51.194;6.840;2023-05-10T05:32:05;38.17;;;21.63;;
18082;SDS011;9168;51.194;6.840;2023-05-10T05:34:33;39.28;;;22.13;;
18082;SDS011;9168;51.194;6.840;2023-05-10T05:37:00;41.92;;;22.38;;
18082;SDS011;9168;51.194;6.840;2023-05-10T05:39:27;38.83;;;20.48;;
18082;SDS011;9168;51.194;6.840;2023-05-10T05:41:54;35.15;;;19.33;;
18082;SDS011;9168;51.194;6.840;2023-05-10T05:44:22;32.60;;;18.67;;
18082;SDS011;9168;51.194;6.840;2023-05-10T05:46:49;35.88;;;17.85;;
18082;SDS011;9168;51.194;6.840;2023-05-10T05:49:16;33.50;;;17.63;;
18082;SDS011;9168;51.194;6.840;2023-05-10T05:51:43;34.55;;;16.98;;
18082;SDS011;9168;51.194;6.840;2023-05-10T05:54:10;31.63;;;17.85;;
18082;SDS011;9168;51.194;6.840;2023-05-10T05:56:36;29.02;;;16.13;;
18082;SDS011;9168;51.194;6.840;2023-05-10T05:59:03;32.85;;;17.13;;
18082;SDS011;9168;51.194;6.840;2023-05-10T06:01:32;25.92;;;15.40;;
18082;SDS011;9168;51.194;6.840;2023-05-10T06:03:59;33.25;;;16.38;;
18082;SDS011;9168;51.194;6.840;2023-05-10T06:06:26;29.83;;;16.77;;
18082;SDS011;9168;51.194;6.840;2023-05-10T06:08:53;26.15;;;16.02;;
18082;SDS011;9168;51.194;6.840;2023-05-10T06:11:19;29.58;;;16.55;;
18082;SDS011;9168;51.194;6.840;2023-05-10T06:13:47;28.85;;;16.33;;
18082;SDS011;9168;51.194;6.840;2023-05-10T06:16:13;32.72;;;16.00;;
18082;SDS011;9168;51.194;6.840;2023-05-10T06:18:42;29.20;;;16.90;;
18082;SDS011;9168;51.194;6.840;2023-05-10T06:21:08;32.10;;;15.65;;
18082;SDS011;9168;51.194;6.840;2023-05-10T06:23:35;37.28;;;17.25;;
18082;SDS011;9168;51.194;6.840;2023-05-10T06:26:02;30.38;;;16.75;;
18082;SDS011;9168;51.194;6.840;2023-05-10T06:28:29;34.08;;;16.33;;
18082;SDS011;9168;51.194;6.840;2023-05-10T06:30:57;27.67;;;15.57;;
18082;SDS011;9168;51.194;6.840;2023-05-10T06:33:24;33.35;;;15.52;;
18082;SDS011;9168;51.194;6.840;2023-05-10T06:35:52;32.97;;;15.10;;
18082;SDS011;9168;51.194;6.840;2023-05-10T06:38:19;41.00;;;15.75;;
18082;SDS011;9168;51.194;6.840;2023-05-10T06:40:45;26.45;;;15.05;;
18082;SDS011;9168;51.194;6.840;2023-05-10T06:43:12;28.00;;;15.48;;
18082;SDS011;9168;51.194;6.840;2023-05-10T06:45:40;29.85;;;15.30;;
18082;SDS011;9168;51.194;6.840;2023-05-10T06:48:07;35.55;;;13.98;;
18082;SDS011;9168;51.194;6.840;2023-05-10T06:50:34;29.23;;;15.88;;
18082;SDS011;9168;51.194;6.840;2023-05-10T06:53:02;27.40;;;15.45;;
18082;SDS011;9168;51.194;6.840;2023-05-10T06:55:29;30.70;;;15.98;;
18082;SDS011;9168;51.194;6.840;2023-05-10T06:57:56;30.42;;;16.08;;
18082;SDS011;9168;51.194;6.840;2023-05-10T07:00:23;35.58;;;17.77;;
18082;SDS011;9168;51.194;6.840;2023-05-10T07:02:50;38.63;;;18.40;;
18082;SDS011;9168;51.194;6.840;2023-05-10T07:05:17;39.70;;;17.02;;
18082;SDS011;9168;51.194;6.840;2023-05-10T07:07:44;51.92;;;20.00;;
18082;SDS011;9168;51.194;6.840;2023-05-10T07:10:13;35.72;;;16.67;;
18082;SDS011;9168;51.194;6.840;2023-05-10T07:12:39;44.53;;;18.73;;
18082;SDS011;9168;51.194;6.840;2023-05-10T07:15:07;39.80;;;18.58;;
18082;SDS011;9168;51.194;6.840;2023-05-10T07:17:35;45.40;;;18.25;;
18082;SDS011;9168;51.194;6.840;2023-05-10T07:20:02;37.65;;;16.85;;
18082;SDS011;9168;51.194;6.840;2023-05-10T07:22:29;34.22;;;15.57;;
18082;SDS011;9168;51.194;6.840;2023-05-10T07:24:56;39.90;;;18.10;;
18082;SDS011;9168;51.194;6.840;2023-05-10T07:27:24;39.10;;;17.85;;
18082;SDS011;9168;51.194;6.840;2023-05-10T07:29:51;36.20;;;17.23;;
18082;SDS011;9168;51.194;6.840;2023-05-10T07:32:18;35.85;;;17.48;;
18082;SDS011;9168;51.194;6.840;2023-05-10T07:34:45;34.20;;;16.15;;
18082;SDS011;9168;51.194;6.840;2023-05-10T07:37:11;34.25;;;15.65;;
18082;SDS011;9168;51.194;6.840;2023-05-10T07:39:38;33.03;;;15.50;;
18082;SDS011;9168;51.194;6.840;2023-05-10T07:42:05;31.13;;;15.05;;
18082;SDS011;9168;51.194;6.840;2023-05-10T07:44:34;27.38;;;14.93;;
18082;SDS011;9168;51.194;6.840;2023-05-10T07:47:01;31.23;;;14.52;;
18082;SDS011;9168;51.194;6.840;2023-05-10T07:49:28;31.67;;;15.88;;
18082;SDS011;9168;51.194;6.840;2023-05-10T07:51:55;27.33;;;14.80;;
18082;SDS011;9168;51.194;6.840;2023-05-10T07:54:22;31.73;;;15.02;;
18082;SDS011;9168;51.194;6.840;2023-05-10T07:56:48;27.83;;;14.55;;
18082;SDS011;9168;51.194;6.840;2023-05-10T07:59:16;22.02;;;12.93;;
18082;SDS011;9168;51.194;6.840;2023-05-10T08:01:45;28.63;;;15.02;;
18082;SDS011;9168;51.194;6.840;2023-05-10T08:04:12;28.10;;;16.00;;
18082;SDS011;9168;51.194;6.840;2023-05-10T08:06:39;37.60;;;20.08;;
18082;SDS011;9168;51.194;6.840;2023-05-10T08:09:06;49.90;;;22.90;;
18082;SDS011;9168;51.194;6.840;2023-05-10T08:11:33;42.45;;;20.55;;
18082;SDS011;9168;51.194;6.840;2023-05-10T08:14:01;41.95;;;22.48;;
18082;SDS011;9168;51.194;6.840;2023-05-10T08:16:28;48.30;;;22.90;;
18082;SDS011;9168;51.194;6.840;2023-05-10T08:18:56;51.28;;;24.90;;
18082;SDS011;9168;51.194;6.840;2023-05-10T08:21:23;52.45;;;25.83;;
18082;SDS011;9168;51.194;6.840;2023-05-10T08:23:51;49.22;;;25.60;;
18082;SDS011;9168;51.194;6.840;2023-05-10T08:26:17;56.65;;;28.73;;
18082;SDS011;9168;51.194;6.840;2023-05-10T08:28:45;57.67;;;29.85;;
18082;SDS011;9168;51.194;6.840;2023-05-10T08:31:12;63.78;;;30.58;;
18082;SDS011;9168;51.194;6.840;2023-05-10T08:33:39;65.32;;;32.10;;
18082;SDS011;9168;51.194;6.840;2023-05-10T08:36:07;61.13;;;30.25;;
18082;SDS011;9168;51.194;6.840;2023-05-10T08:38:34;55.13;;;29.45;;
18082;SDS011;9168;51.194;6.840;2023-05-10T08:41:02;53.80;;;29.13;;
18082;SDS011;9168;51.194;6.840;2023-05-10T08:43:30;58.85;;;30.67;;
18082;SDS011;9168;51.194;6.840;2023-05-10T08:45:59;54.58;;;29.45;;
18082;SDS011;9168;51.194;6.840;2023-05-10T08:48:27;54.90;;;27.90;;
18082;SDS011;9168;51.194;6.840;2023-05-10T08:50:55;57.28;;;30.23;;
18082;SDS011;9168;51.194;6.840;2023-05-10T08:53:25;51.90;;;27.60;;
18082;SDS011;9168;51.194;6.840;2023-05-10T08:55:54;51.70;;;26.77;;
18082;SDS011;9168;51.194;6.840;2023-05-10T08:58:21;56.25;;;28.67;;
18082;SDS011;9168;51.194;6.840;2023-05-10T09:00:49;52.30;;;27.17;;
18082;SDS011;9168;51.194;6.840;2023-05-10T09:03:17;59.70;;;28.90;;
18082;SDS011;9168;51.194;6.840;2023-05-10T09:05:44;52.25;;;26.25;;
18082;SDS011;9168;51.194;6.840;2023-05-10T09:08:12;53.90;;;26.20;;
18082;SDS011;9168;51.194;6.840;2023-05-10T09:10:44;67.07;;;28.42;;
18082;SDS011;9168;51.194;6.840;2023-05-10T09:13:12;54.25;;;25.98;;
18082;SDS011;9168;51.194;6.840;2023-05-10T09:15:40;54.30;;;27.75;;
18082;SDS011;9168;51.194;6.840;2023-05-10T09:18:07;52.13;;;27.55;;
18082;SDS011;9168;51.194;6.840;2023-05-10T09:20:34;43.90;;;23.63;;
18082;SDS011;9168;51.194;6.840;2023-05-10T09:23:01;50.70;;;26.10;;
18082;SDS011;9168;51.194;6.840;2023-05-10T09:25:28;49.33;;;25.25;;
18082;SDS011;9168;51.194;6.840;2023-05-10T09:27:56;51.28;;;24.17;;
18082;SDS011;9168;51.194;6.840;2023-05-10T09:30:23;53.83;;;23.30;;
18082;SDS011;9168;51.194;6.840;2023-05-10T09:32:51;41.85;;;21.17;;
18082;SDS011;9168;51.194;6.840;2023-05-10T09:35:20;41.40;;;21.30;;
18082;SDS011;9168;51.194;6.840;2023-05-10T09:37:48;43.78;;;21.45;;
18082;SDS011;9168;51.194;6.840;2023-05-10T09:40:17;41.38;;;21.83;;
18082;SDS011;9168;51.194;6.840;2023-05-10T09:42:50;37.83;;;19.48;;
18082;SDS011;9168;51.194;6.840;2023-05-10T09:45:20;41.05;;;20.60;;
18082;SDS011;9168;51.194;6.840;2023-05-10T09:47:48;34.05;;;19.52;;
18082;SDS011;9168;51.194;6.840;2023-05-10T09:50:14;31.08;;;18.38;;
18082;SDS011;9168;51.194;6.840;2023-05-10T09:52:46;37.17;;;17.67;;
18082;SDS011;9168;51.194;6.840;2023-05-10T09:55:14;33.25;;;18.70;;
18082;SDS011;9168;51.194;6.840;2023-05-10T09:57:41;30.80;;;17.42;;
18082;SDS011;9168;51.194;6.840;2023-05-10T10:00:09;33.15;;;17.60;;
18082;SDS011;9168;51.194;6.840;2023-05-10T10:02:37;31.80;;;17.58;;
18082;SDS011;9168;51.194;6.840;2023-05-10T10:05:06;28.35;;;15.77;;
18082;SDS011;9168;51.194;6.840;2023-05-10T10:07:33;29.58;;;16.92;;
18082;SDS011;9168;51.194;6.840;2023-05-10T10:10:01;28.63;;;16.75;;
18082;SDS011;9168;51.194;6.840;2023-05-10T10:12:29;30.80;;;17.25;;
18082;SDS011;9168;51.194;6.840;2023-05-10T10:14:57;28.08;;;15.63;;
18082;SDS011;9168;51.194;6.840;2023-05-10T10:17:26;28.27;;;15.25;;
18082;SDS011;9168;51.194;6.840;2023-05-10T10:19:55;27.77;;;15.40;;
18082;SDS011;9168;51.194;6.840;2023-05-10T10:22:23;34.08;;;16.25;;
18082;SDS011;9168;51.194;6.840;2023-05-10T10:24:50;26.15;;;15.23;;
18082;SDS011;9168;51.194;6.840;2023-05-10T10:27:20;24.17;;;13.90;;
18082;SDS011;9168;51.194;6.840;2023-05-10T10:29:55;28.95;;;15.63;;
18082;SDS011;9168;51.194;6.840;2023-05-10T10:32:30;24.48;;;14.35;;
18082;SDS011;9168;51.194;6.840;2023-05-10T10:35:05;27.00;;;16.35;;
18082;SDS011;9168;51.194;6.840;2023-05-10T10:37:43;29.67;;;17.23;;
18082;SDS011;9168;51.194;6.840;2023-05-10T10:40:26;30.50;;;17.30;;
18082;SDS011;9168;51.194;6.840;2023-05-10T10:42:54;28.23;;;15.95;;
18082;SDS011;9168;51.194;6.840;2023-05-10T10:45:23;28.92;;;15.73;;
18082;SDS011;9168;51.194;6.840;2023-05-10T10:47:53;24.50;;;15.43;;
18082;SDS011;9168;51.194;6.840;2023-05-10T10:50:44;24.55;;;15.60;;
18082;SDS011;9168;51.194;6.840;2023-05-10T10:53:11;25.15;;;14.60;;
18082;SDS011;9168;51.194;6.840;2023-05-10T10:55:44;23.17;;;14.10;;
18082;SDS011;9168;51.194;6.840;2023-05-10T10:58:15;23.23;;;13.43;;
18082;SDS011;9168;51.194;6.840;2023-05-10T11:01:09;27.45;;;13.85;;
18082;SDS011;9168;51.194;6.840;2023-05-10T11:03:37;25.77;;;13.02;;
18082;SDS011;9168;51.194;6.840;2023-05-10T11:06:05;27.52;;;12.90;;
18082;SDS011;9168;51.194;6.840;2023-05-10T11:08:33;25.00;;;12.95;;
18082;SDS011;9168;51.194;6.840;2023-05-10T11:11:04;27.90;;;14.90;;
18082;SDS011;9168;51.194;6.840;2023-05-10T11:13:38;25.60;;;14.00;;
18082;SDS011;9168;51.194;6.840;2023-05-10T11:16:09;29.00;;;14.23;;
18082;SDS011;9168;51.194;6.840;2023-05-10T11:18:40;27.10;;;16.08;;
18082;SDS011;9168;51.194;6.840;2023-05-10T11:21:28;24.02;;;14.02;;
18082;SDS011;9168;51.194;6.840;2023-05-10T11:23:56;27.98;;;16.13;;
18082;SDS011;9168;51.194;6.840;2023-05-10T11:26:25;28.83;;;15.40;;
18082;SDS011;9168;51.194;6.840;2023-05-10T11:28:56;29.05;;;16.33;;
18082;SDS011;9168;51.194;6.840;2023-05-10T11:31:24;31.80;;;16.70;;
18082;SDS011;9168;51.194;6.840;2023-05-10T11:33:52;25.15;;;14.77;;
18082;SDS011;9168;51.194;6.840;2023-05-10T11:36:21;28.55;;;16.48;;
18082;SDS011;9168;51.194;6.840;2023-05-10T11:38:52;31.08;;;16.50;;
18082;SDS011;9168;51.194;6.840;2023-05-10T11:41:20;30.45;;;16.85;;
18082;SDS011;9168;51.194;6.840;2023-05-10T11:43:49;32.40;;;16.85;;
18082;SDS011;9168;51.194;6.840;2023-05-10T11:46:18;27.50;;;14.45;;
18082;SDS011;9168;51.194;6.840;2023-05-10T11:48:46;27.90;;;16.65;;
18082;SDS011;9168;51.194;6.840;2023-05-10T11:51:15;25.80;;;15.25;;
18082;SDS011;9168;51.194;6.840;2023-05-10T11:53:45;35.67;;;18.10;;
18082;SDS011;9168;51.194;6.840;2023-05-10T11:56:14;29.35;;;16.48;;
18082;SDS011;9168;51.194;6.840;2023-05-10T11:58:41;28.40;;;17.08;;
18082;SDS011;9168;51.194;6.840;2023-05-10T12:01:08;29.85;;;16.23;;
18082;SDS011;9168;51.194;6.840;2023-05-10T12:03:36;30.23;;;17.80;;
18082;SDS011;9168;51.194;6.840;2023-05-10T12:06:03;28.48;;;16.30;;
18082;SDS011;9168;51.194;6.840;2023-05-10T12:08:30;26.25;;;16.08;;
18082;SDS011;9168;51.194;6.840;2023-05-10T12:11:04;26.52;;;16.50;;
18082;SDS011;9168;51.194;6.840;2023-05-10T12:13:36;25.15;;;15.25;;
18082;SDS011;9168;51.194;6.840;2023-05-10T12:16:12;27.55;;;15.10;;
18082;SDS011;9168;51.194;6.840;2023-05-10T12:18:40;29.58;;;15.88;;
18082;SDS011;9168;51.194;6.840;2023-05-10T12:21:07;27.45;;;14.13;;
18082;SDS011;9168;51.194;6.840;2023-05-10T12:23:36;27.65;;;16.30;;
18082;SDS011;9168;51.194;6.840;2023-05-10T12:26:03;27.00;;;15.65;;
18082;SDS011;9168;51.194;6.840;2023-05-10T12:28:31;23.95;;;15.13;;
18082;SDS011;9168;51.194;6.840;2023-05-10T12:31:00;23.00;;;14.15;;
18082;SDS011;9168;51.194;6.840;2023-05-10T12:33:27;26.15;;;17.20;;
18082;SDS011;9168;51.194;6.840;2023-05-10T12:36:01;29.23;;;17.73;;
18082;SDS011;9168;51.194;6.840;2023-05-10T12:38:29;26.50;;;17.45;;
18082;SDS011;9168;51.194;6.840;2023-05-10T12:41:00;27.33;;;17.05;;
18082;SDS011;9168;51.194;6.840;2023-05-10T12:43:27;31.63;;;19.05;;
18082;SDS011;9168;51.194;6.840;2023-05-10T12:45:54;34.35;;;18.35;;
18082;SDS011;9168;51.194;6.840;2023-05-10T12:48:23;35.67;;;21.75;;
18082;SDS011;9168;51.194;6.840;2023-05-10T12:50:50;40.15;;;23.88;;
18082;SDS011;9168;51.194;6.840;2023-05-10T12:53:17;36.47;;;24.33;;
18082;SDS011;9168;51.194;6.840;2023-05-10T12:55:44;38.28;;;24.80;;
18082;SDS011;9168;51.194;6.840;2023-05-10T12:58:11;38.42;;;23.08;;
18082;SDS011;9168;51.194;6.840;2023-05-10T13:00:38;39.80;;;24.02;;
18082;SDS011;9168;51.194;6.840;2023-05-10T13:03:05;36.17;;;22.42;;
18082;SDS011;9168;51.194;6.840;2023-05-10T13:05:33;34.42;;;21.08;;
18082;SDS011;9168;51.194;6.840;2023-05-10T13:08:00;38.00;;;24.75;;
18082;SDS011;9168;51.194;6.840;2023-05-10T13:10:28;35.25;;;21.77;;
18082;SDS011;9168;51.194;6.840;2023-05-10T13:12:56;40.97;;;22.60;;
18082;SDS011;9168;51.194;6.840;2023-05-10T13:15:23;41.90;;;22.67;;
18082;SDS011;9168;51.194;6.840;2023-05-10T13:17:50;36.08;;;23.23;;
18082;SDS011;9168;51.194;6.840;2023-05-10T13:20:17;46.15;;;25.35;;
18082;SDS011;9168;51.194;6.840;2023-05-10T13:22:46;41.92;;;25.48;;
18082;SDS011;9168;51.194;6.840;2023-05-10T13:25:12;37.67;;;22.73;;
18082;SDS011;9168;51.194;6.840;2023-05-10T13:27:39;45.58;;;25.85;;
18082;SDS011;9168;51.194;6.840;2023-05-10T13:30:07;39.95;;;25.05;;
18082;SDS011;9168;51.194;6.840;2023-05-10T13:32:34;44.78;;;26.20;;
18082;SDS011;9168;51.194;6.840;2023-05-10T13:35:02;48.63;;;25.98;;
18082;SDS011;9168;51.194;6.840;2023-05-10T13:37:29;38.60;;;23.75;;
18082;SDS011;9168;51.194;6.840;2023-05-10T13:39:57;38.28;;;24.48;;
18082;SDS011;9168;51.194;6.840;2023-05-10T13:42:24;40.45;;;24.10;;
18082;SDS011;9168;51.194;6.840;2023-05-10T13:44:52;40.25;;;23.95;;
18082;SDS011;9168;51.194;6.840;2023-05-10T13:47:18;33.95;;;20.75;;
18082;SDS011;9168;51.194;6.840;2023-05-10T13:49:46;38.75;;;23.00;;
18082;SDS011;9168;51.194;6.840;2023-05-10T13:52:13;32.88;;;21.13;;
18082;SDS011;9168;51.194;6.840;2023-05-10T13:54:40;34.90;;;21.40;;
18082;SDS011;9168;51.194;6.840;2023-05-10T13:57:08;31.02;;;20.05;;
18082;SDS011;9168;51.194;6.840;2023-05-10T13:59:37;29.65;;;19.70;;
18082;SDS011;9168;51.194;6.840;2023-05-10T14:02:04;25.45;;;15.20;;
18082;SDS011;9168;51.194;6.840;2023-05-10T14:04:32;22.65;;;14.48;;
18082;SDS011;9168;51.194;6.840;2023-05-10T14:07:00;22.73;;;14.32;;
18082;SDS011;9168;51.194;6.840;2023-05-10T14:09:27;21.60;;;13.10;;
18082;SDS011;9168;51.194;6.840;2023-05-10T14:11:54;22.10;;;13.20;;
18082;SDS011;9168;51.194;6.840;2023-05-10T14:14:22;23.25;;;13.52;;
18082;SDS011;9168;51.194;6.840;2023-05-10T14:16:49;21.45;;;11.02;;
18082;SDS011;9168;51.194;6.840;2023-05-10T14:19:16;18.45;;;11.40;;
18082;SDS011;9168;51.194;6.840;2023-05-10T14:21:43;19.05;;;11.30;;
18082;SDS011;9168;51.194;6.840;2023-05-10T14:24:10;17.52;;;11.98;;
18082;SDS011;9168;51.194;6.840;2023-05-10T14:26:37;20.50;;;12.95;;
18082;SDS011;9168;51.194;6.840;2023-05-10T14:29:04;23.88;;;13.85;;
18082;SDS011;9168;51.194;6.840;2023-05-10T14:31:32;23.08;;;12.85;;
18082;SDS011;9168;51.194;6.840;2023-05-10T14:34:01;22.70;;;14.25;;
18082;SDS011;9168;51.194;6.840;2023-05-10T14:36:28;26.90;;;14.45;;
18082;SDS011;9168;51.194;6.840;2023-05-10T14:38:55;26.65;;;14.80;;
18082;SDS011;9168;51.194;6.840;2023-05-10T14:41:22;23.58;;;14.65;;
18082;SDS011;9168;51.194;6.840;2023-05-10T14:43:49;22.55;;;13.63;;